WZZ52S LIPZ-LIMC
Flight info
| Callsign | WZZ52S |
|---|---|
| Flight time | 0h 37m |
| Altitude | 31000 |
| Route | VIC L615 OSKOR DCT LEGLO DCT PEXUG |
| Aircraft | A320/M-SDE3FGHIRWY/LB1 |
Departure
| Time | 2026-05-06 15:36 |
|---|---|
| Airport | Venice Marco Polo Airport (LIPZ) |
Arrival
| Time | 2026-05-06 16:14 |
|---|---|
| Airport | Milan Malpensa International Airport (LIMC) |
| Time | Latitude | Longitude | Altitude | Speed | Heading |
|---|---|---|---|---|---|
| 2026-05-06 15:19 | 45.50548 | 12.34213 | 16 ft | 0 kts | 268° |
| 2026-05-06 15:26 | 45.50548 | 12.34214 | 16 ft | 0 kts | 268° |
| 2026-05-06 15:27 | 45.50548 | 12.34230 | 17 ft | 2 kts | 268° |
| 2026-05-06 15:27 | 45.50548 | 12.34254 | 17 ft | 2 kts | 268° |
| 2026-05-06 15:27 | 45.50549 | 12.34279 | 19 ft | 2 kts | 268° |
| 2026-05-06 15:28 | 45.50555 | 12.34301 | 18 ft | 2 kts | 198° |
| 2026-05-06 15:28 | 45.50560 | 12.34304 | 16 ft | 0 kts | 172° |
| 2026-05-06 15:31 | 45.50546 | 12.34310 | 19 ft | 4 kts | 160° |
| 2026-05-06 15:32 | 45.50475 | 12.34343 | 17 ft | 9 kts | 168° |
| 2026-05-06 15:32 | 45.50415 | 12.34356 | 19 ft | 8 kts | 173° |
| 2026-05-06 15:32 | 45.50354 | 12.34362 | 22 ft | 10 kts | 177° |
| 2026-05-06 15:32 | 45.50276 | 12.34366 | 20 ft | 13 kts | 178° |
| 2026-05-06 15:33 | 45.50173 | 12.34365 | 14 ft | 11 kts | 192° |
| 2026-05-06 15:33 | 45.50098 | 12.34304 | 16 ft | 14 kts | 215° |
| 2026-05-06 15:33 | 45.50069 | 12.34280 | 13 ft | 0 kts | 173° |
| 2026-05-06 15:33 | 45.50067 | 12.34285 | 13 ft | 1 kts | 139° |
| 2026-05-06 15:34 | 45.50057 | 12.34318 | 14 ft | 8 kts | 106° |
| 2026-05-06 15:34 | 45.50054 | 12.34415 | 14 ft | 11 kts | 91° |
| 2026-05-06 15:34 | 45.50039 | 12.34509 | 14 ft | 8 kts | 118° |
| 2026-05-06 15:34 | 45.50026 | 12.34559 | 12 ft | 5 kts | 87° |
| 2026-05-06 15:35 | 45.50034 | 12.34573 | 12 ft | 0 kts | 39° |
| 2026-05-06 15:35 | 45.50043 | 12.34584 | 13 ft | 12 kts | 40° |
| 2026-05-06 15:35 | 45.50317 | 12.34933 | 12 ft | 90 kts | 44° |
| 2026-05-06 15:36 | 45.50920 | 12.35701 | 14 ft | 142 kts | 42° |
| 2026-05-06 15:36 | 45.51693 | 12.36740 | 411 ft | 149 kts | 47° |
| 2026-05-06 15:36 | 45.52434 | 12.37734 | 1073 ft | 150 kts | 49° |
| 2026-05-06 15:36 | 45.53083 | 12.38959 | 1460 ft | 160 kts | 69° |
| 2026-05-06 15:37 | 45.53377 | 12.40516 | 1909 ft | 166 kts | 91° |
| 2026-05-06 15:37 | 45.53305 | 12.42160 | 2453 ft | 167 kts | 99° |
| 2026-05-06 15:37 | 45.53271 | 12.43842 | 3061 ft | 171 kts | 94° |
| 2026-05-06 15:37 | 45.53322 | 12.45532 | 3659 ft | 169 kts | 96° |
| 2026-05-06 15:38 | 45.53145 | 12.47147 | 4277 ft | 162 kts | 105° |
| 2026-05-06 15:38 | 45.52899 | 12.48699 | 4771 ft | 165 kts | 111° |
| 2026-05-06 15:38 | 45.52562 | 12.50354 | 5040 ft | 183 kts | 118° |
| 2026-05-06 15:38 | 45.51833 | 12.51886 | 5306 ft | 198 kts | 143° |
| 2026-05-06 15:39 | 45.50597 | 12.52839 | 5690 ft | 208 kts | 172° |
| 2026-05-06 15:39 | 45.49172 | 12.52817 | 6367 ft | 206 kts | 199° |
| 2026-05-06 15:39 | 45.47826 | 12.52115 | 7096 ft | 205 kts | 205° |
| 2026-05-06 15:39 | 45.46677 | 12.50955 | 7813 ft | 205 kts | 234° |
| 2026-05-06 15:40 | 45.46176 | 12.49026 | 8350 ft | 222 kts | 267° |
| 2026-05-06 15:40 | 45.46510 | 12.46737 | 8692 ft | 251 kts | 283° |
| 2026-05-06 15:40 | 45.47056 | 12.44265 | 9125 ft | 270 kts | 284° |
| 2026-05-06 15:40 | 45.47643 | 12.41691 | 9719 ft | 278 kts | 284° |
| 2026-05-06 15:41 | 45.48239 | 12.39070 | 9865 ft | 278 kts | 283° |
| 2026-05-06 15:41 | 45.48847 | 12.36348 | 10057 ft | 300 kts | 283° |
| 2026-05-06 15:41 | 45.49492 | 12.33391 | 10257 ft | 323 kts | 283° |
| 2026-05-06 15:41 | 45.50169 | 12.30270 | 10711 ft | 334 kts | 283° |
| 2026-05-06 15:42 | 45.50861 | 12.27090 | 11362 ft | 339 kts | 283° |
| 2026-05-06 15:42 | 45.51565 | 12.23859 | 12010 ft | 343 kts | 283° |
| 2026-05-06 15:42 | 45.52268 | 12.20635 | 12679 ft | 347 kts | 283° |
| 2026-05-06 15:42 | 45.52986 | 12.17334 | 13375 ft | 350 kts | 282° |
| 2026-05-06 15:43 | 45.53714 | 12.13999 | 14028 ft | 354 kts | 283° |
| 2026-05-06 15:43 | 45.54454 | 12.10626 | 14634 ft | 357 kts | 283° |
| 2026-05-06 15:43 | 45.55198 | 12.07235 | 15240 ft | 360 kts | 283° |
| 2026-05-06 15:43 | 45.55946 | 12.03813 | 15845 ft | 362 kts | 282° |
| 2026-05-06 15:44 | 45.56696 | 12.00368 | 16453 ft | 365 kts | 282° |
| 2026-05-06 15:44 | 45.57446 | 11.96902 | 17055 ft | 368 kts | 282° |
| 2026-05-06 15:44 | 45.58203 | 11.93403 | 17684 ft | 370 kts | 282° |
| 2026-05-06 15:44 | 45.58956 | 11.89917 | 18271 ft | 373 kts | 282° |
| 2026-05-06 15:45 | 45.59720 | 11.86371 | 18793 ft | 376 kts | 282° |
| 2026-05-06 15:45 | 45.60492 | 11.82788 | 19335 ft | 378 kts | 282° |
| 2026-05-06 15:45 | 45.61269 | 11.79187 | 19770 ft | 380 kts | 282° |
| 2026-05-06 15:45 | 45.62045 | 11.75566 | 20191 ft | 382 kts | 281° |
| 2026-05-06 15:46 | 45.62821 | 11.71938 | 20774 ft | 383 kts | 281° |
| 2026-05-06 15:46 | 45.63516 | 11.68273 | 21272 ft | 381 kts | 275° |
| 2026-05-06 15:46 | 45.63792 | 11.64530 | 21767 ft | 377 kts | 266° |
| 2026-05-06 15:46 | 45.63837 | 11.60778 | 22254 ft | 379 kts | 265° |
| 2026-05-06 15:47 | 45.63885 | 11.57006 | 22756 ft | 381 kts | 265° |
| 2026-05-06 15:47 | 45.63931 | 11.53215 | 23245 ft | 383 kts | 265° |
| 2026-05-06 15:47 | 45.63976 | 11.49407 | 23692 ft | 385 kts | 265° |
| 2026-05-06 15:47 | 45.64022 | 11.45618 | 24095 ft | 386 kts | 265° |
| 2026-05-06 15:48 | 45.64069 | 11.41779 | 24503 ft | 388 kts | 265° |
| 2026-05-06 15:48 | 45.64117 | 11.37917 | 24916 ft | 389 kts | 265° |
| 2026-05-06 15:48 | 45.64163 | 11.34052 | 25309 ft | 390 kts | 265° |
| 2026-05-06 15:48 | 45.64207 | 11.30173 | 25707 ft | 391 kts | 265° |
| 2026-05-06 15:49 | 45.64247 | 11.26275 | 25876 ft | 393 kts | 265° |
| 2026-05-06 15:49 | 45.64282 | 11.22339 | 25905 ft | 397 kts | 265° |
| 2026-05-06 15:49 | 45.64315 | 11.18392 | 25898 ft | 398 kts | 265° |
| 2026-05-06 15:49 | 45.64351 | 11.14440 | 25898 ft | 398 kts | 265° |
| 2026-05-06 15:50 | 45.64387 | 11.10489 | 25891 ft | 398 kts | 265° |
| 2026-05-06 15:50 | 45.64422 | 11.06533 | 25895 ft | 397 kts | 265° |
| 2026-05-06 15:50 | 45.64456 | 11.02595 | 25893 ft | 397 kts | 265° |
| 2026-05-06 15:50 | 45.64489 | 10.98696 | 25907 ft | 397 kts | 264° |
| 2026-05-06 15:51 | 45.64522 | 10.94769 | 25885 ft | 396 kts | 264° |
| 2026-05-06 15:51 | 45.64554 | 10.90851 | 25878 ft | 395 kts | 264° |
| 2026-05-06 15:51 | 45.64585 | 10.86907 | 25881 ft | 395 kts | 264° |
| 2026-05-06 15:51 | 45.64613 | 10.83002 | 25882 ft | 394 kts | 264° |
| 2026-05-06 15:52 | 45.64640 | 10.79088 | 25884 ft | 394 kts | 264° |
| 2026-05-06 15:52 | 45.64669 | 10.75166 | 25885 ft | 394 kts | 264° |
| 2026-05-06 15:52 | 45.64699 | 10.71258 | 25885 ft | 394 kts | 264° |
| 2026-05-06 15:52 | 45.64729 | 10.67339 | 25882 ft | 394 kts | 264° |
| 2026-05-06 15:53 | 45.64758 | 10.63477 | 25884 ft | 394 kts | 264° |
| 2026-05-06 15:53 | 45.64783 | 10.59577 | 25896 ft | 393 kts | 264° |
| 2026-05-06 15:53 | 45.64802 | 10.55651 | 25888 ft | 393 kts | 264° |
| 2026-05-06 15:53 | 45.64817 | 10.51746 | 25877 ft | 393 kts | 264° |
| 2026-05-06 15:54 | 45.64831 | 10.47835 | 25865 ft | 392 kts | 264° |
| 2026-05-06 15:54 | 45.64845 | 10.43980 | 25478 ft | 385 kts | 264° |
| 2026-05-06 15:54 | 45.64858 | 10.40184 | 24874 ft | 382 kts | 264° |
| 2026-05-06 15:54 | 45.64871 | 10.36395 | 24269 ft | 379 kts | 264° |
| 2026-05-06 15:55 | 45.64883 | 10.32641 | 23651 ft | 377 kts | 264° |
| 2026-05-06 15:55 | 45.64896 | 10.28901 | 23002 ft | 376 kts | 265° |
| 2026-05-06 15:55 | 45.64906 | 10.25220 | 22356 ft | 374 kts | 265° |
| 2026-05-06 15:55 | 45.64913 | 10.21512 | 21696 ft | 372 kts | 265° |
| 2026-05-06 15:56 | 45.64916 | 10.17832 | 21154 ft | 369 kts | 265° |
| 2026-05-06 15:56 | 45.64922 | 10.14179 | 20558 ft | 367 kts | 265° |
| 2026-05-06 15:56 | 45.64929 | 10.10540 | 20046 ft | 365 kts | 266° |
| 2026-05-06 15:56 | 45.64942 | 10.06927 | 19853 ft | 365 kts | 266° |
| 2026-05-06 15:57 | 45.64957 | 10.03295 | 19856 ft | 367 kts | 266° |
| 2026-05-06 15:57 | 45.64975 | 9.99624 | 19850 ft | 368 kts | 266° |
| 2026-05-06 15:57 | 45.64992 | 9.95975 | 19844 ft | 367 kts | 266° |
| 2026-05-06 15:57 | 45.65005 | 9.92327 | 19842 ft | 367 kts | 266° |
| 2026-05-06 15:58 | 45.65015 | 9.88672 | 19845 ft | 368 kts | 266° |
| 2026-05-06 15:58 | 45.65025 | 9.85020 | 19832 ft | 368 kts | 266° |
| 2026-05-06 15:58 | 45.65033 | 9.81362 | 19866 ft | 368 kts | 266° |
| 2026-05-06 15:58 | 45.65039 | 9.77742 | 19841 ft | 369 kts | 266° |
| 2026-05-06 15:59 | 45.64978 | 9.74090 | 19838 ft | 367 kts | 258° |
| 2026-05-06 15:59 | 45.64293 | 9.70636 | 19739 ft | 358 kts | 243° |
| 2026-05-06 15:59 | 45.63048 | 9.67584 | 19160 ft | 354 kts | 236° |
| 2026-05-06 15:59 | 45.61719 | 9.64620 | 18555 ft | 354 kts | 236° |
| 2026-05-06 16:00 | 45.60383 | 9.61676 | 17933 ft | 354 kts | 236° |
| 2026-05-06 16:00 | 45.59047 | 9.58735 | 17549 ft | 352 kts | 236° |
| 2026-05-06 16:00 | 45.57723 | 9.55813 | 16935 ft | 350 kts | 236° |
| 2026-05-06 16:00 | 45.56410 | 9.52901 | 16372 ft | 347 kts | 236° |
| 2026-05-06 16:01 | 45.55120 | 9.50040 | 15825 ft | 343 kts | 236° |
| 2026-05-06 16:01 | 45.53850 | 9.47220 | 15254 ft | 341 kts | 236° |
| 2026-05-06 16:01 | 45.52574 | 9.44385 | 14681 ft | 340 kts | 236° |
| 2026-05-06 16:01 | 45.51302 | 9.41564 | 14130 ft | 338 kts | 236° |
| 2026-05-06 16:02 | 45.50028 | 9.38743 | 13531 ft | 337 kts | 236° |
| 2026-05-06 16:02 | 45.48762 | 9.35943 | 12672 ft | 335 kts | 236° |
| 2026-05-06 16:02 | 45.47524 | 9.33199 | 12404 ft | 324 kts | 236° |
| 2026-05-06 16:02 | 45.46337 | 9.30559 | 12265 ft | 305 kts | 236° |
| 2026-05-06 16:03 | 45.45226 | 9.28095 | 11907 ft | 291 kts | 236° |
| 2026-05-06 16:03 | 45.44137 | 9.25699 | 11400 ft | 284 kts | 236° |
| 2026-05-06 16:03 | 45.43072 | 9.23363 | 10902 ft | 278 kts | 236° |
| 2026-05-06 16:03 | 45.42014 | 9.21040 | 10416 ft | 282 kts | 236° |
| 2026-05-06 16:04 | 45.40945 | 9.18694 | 9924 ft | 287 kts | 236° |
| 2026-05-06 16:04 | 45.39854 | 9.16295 | 9410 ft | 290 kts | 236° |
| 2026-05-06 16:04 | 45.38758 | 9.13884 | 8885 ft | 293 kts | 236° |
| 2026-05-06 16:04 | 45.37674 | 9.11501 | 8369 ft | 286 kts | 235° |
| 2026-05-06 16:05 | 45.36607 | 9.09159 | 7859 ft | 279 kts | 235° |
| 2026-05-06 16:05 | 45.35563 | 9.06872 | 7357 ft | 272 kts | 235° |
| 2026-05-06 16:05 | 45.34725 | 9.04508 | 6867 ft | 268 kts | 253° |
| 2026-05-06 16:05 | 45.34645 | 9.01849 | 6382 ft | 274 kts | 271° |
| 2026-05-06 16:06 | 45.34853 | 8.99126 | 6030 ft | 278 kts | 273° |
| 2026-05-06 16:06 | 45.35095 | 8.96441 | 6041 ft | 267 kts | 273° |
| 2026-05-06 16:06 | 45.35331 | 8.93882 | 5938 ft | 254 kts | 274° |
| 2026-05-06 16:06 | 45.35550 | 8.91470 | 5714 ft | 241 kts | 274° |
| 2026-05-06 16:07 | 45.35748 | 8.89124 | 5290 ft | 238 kts | 274° |
| 2026-05-06 16:07 | 45.35939 | 8.86831 | 4815 ft | 236 kts | 274° |
| 2026-05-06 16:07 | 45.36125 | 8.84521 | 4348 ft | 235 kts | 274° |
| 2026-05-06 16:07 | 45.36309 | 8.82204 | 4156 ft | 235 kts | 274° |
| 2026-05-06 16:08 | 45.36514 | 8.79913 | 3930 ft | 235 kts | 281° |
| 2026-05-06 16:08 | 45.37326 | 8.77933 | 3651 ft | 238 kts | 320° |
| 2026-05-06 16:08 | 45.38856 | 8.77131 | 3358 ft | 239 kts | 2° |
| 2026-05-06 16:08 | 45.40448 | 8.77702 | 3129 ft | 238 kts | 21° |
| 2026-05-06 16:09 | 45.42020 | 8.78469 | 3074 ft | 239 kts | 15° |
| 2026-05-06 16:09 | 45.43664 | 8.78631 | 3001 ft | 235 kts | 354° |
| 2026-05-06 16:09 | 45.45238 | 8.78273 | 2998 ft | 222 kts | 348° |
| 2026-05-06 16:09 | 45.46689 | 8.77858 | 3016 ft | 204 kts | 349° |
| 2026-05-06 16:10 | 45.48058 | 8.77474 | 3014 ft | 198 kts | 349° |
| 2026-05-06 16:10 | 45.49393 | 8.77105 | 2986 ft | 187 kts | 349° |
| 2026-05-06 16:10 | 45.50591 | 8.76775 | 2862 ft | 170 kts | 350° |
| 2026-05-06 16:10 | 45.51719 | 8.76465 | 2674 ft | 162 kts | 350° |
| 2026-05-06 16:11 | 45.52805 | 8.76166 | 2494 ft | 153 kts | 350° |
| 2026-05-06 16:11 | 45.53825 | 8.75885 | 2293 ft | 147 kts | 350° |
| 2026-05-06 16:11 | 45.54826 | 8.75610 | 2090 ft | 145 kts | 350° |
| 2026-05-06 16:11 | 45.55811 | 8.75339 | 1865 ft | 144 kts | 350° |
| 2026-05-06 16:12 | 45.56795 | 8.75068 | 1704 ft | 143 kts | 351° |
| 2026-05-06 16:12 | 45.57768 | 8.74800 | 1503 ft | 141 kts | 351° |
| 2026-05-06 16:12 | 45.58720 | 8.74537 | 1311 ft | 137 kts | 350° |
| 2026-05-06 16:12 | 45.59654 | 8.74281 | 1133 ft | 137 kts | 351° |
| 2026-05-06 16:13 | 45.60588 | 8.74026 | 937 ft | 137 kts | 350° |
| 2026-05-06 16:13 | 45.61511 | 8.73768 | 765 ft | 137 kts | 349° |
| 2026-05-06 16:13 | 45.62378 | 8.73537 | 723 ft | 108 kts | 348° |
| 2026-05-06 16:13 | 45.62944 | 8.73370 | 731 ft | 60 kts | 348° |
| 2026-05-06 16:14 | 45.63179 | 8.73204 | 737 ft | 23 kts | 317° |
| 2026-05-06 16:14 | 45.63230 | 8.73122 | 738 ft | 7 kts | 309° |
| 2026-05-06 16:14 | 45.63262 | 8.73066 | 740 ft | 7 kts | 308° |
| 2026-05-06 16:14 | 45.63292 | 8.73004 | 741 ft | 8 kts | 304° |
| 2026-05-06 16:15 | 45.63326 | 8.72932 | 741 ft | 9 kts | 304° |
| 2026-05-06 16:15 | 45.63363 | 8.72855 | 744 ft | 10 kts | 304° |
| 2026-05-06 16:15 | 45.63397 | 8.72765 | 745 ft | 11 kts | 290° |
| 2026-05-06 16:15 | 45.63406 | 8.72655 | 746 ft | 12 kts | 270° |
| 2026-05-06 16:16 | 45.63394 | 8.72534 | 747 ft | 13 kts | 258° |
| 2026-05-06 16:16 | 45.63376 | 8.72394 | 745 ft | 16 kts | 262° |
| 2026-05-06 16:16 | 45.63350 | 8.72228 | 748 ft | 14 kts | 256° |
| 2026-05-06 16:16 | 45.63330 | 8.72094 | 744 ft | 14 kts | 261° |
| 2026-05-06 16:17 | 45.63314 | 8.71939 | 746 ft | 16 kts | 262° |
| 2026-05-06 16:17 | 45.63292 | 8.71776 | 747 ft | 18 kts | 256° |
| 2026-05-06 16:17 | 45.63225 | 8.71678 | 747 ft | 16 kts | 179° |
| 2026-05-06 16:17 | 45.63103 | 8.71709 | 744 ft | 20 kts | 168° |
| 2026-05-06 16:18 | 45.62956 | 8.71747 | 741 ft | 24 kts | 169° |
| 2026-05-06 16:18 | 45.62777 | 8.71800 | 738 ft | 28 kts | 168° |
| 2026-05-06 16:18 | 45.62573 | 8.71854 | 734 ft | 32 kts | 170° |
| 2026-05-06 16:18 | 45.62383 | 8.71907 | 730 ft | 14 kts | 168° |
| 2026-05-06 16:19 | 45.62326 | 8.71843 | 729 ft | 7 kts | 255° |
| 2026-05-06 16:19 | 45.62316 | 8.71771 | 729 ft | 8 kts | 262° |
| 2026-05-06 16:19 | 45.62315 | 8.71681 | 730 ft | 9 kts | 302° |
| 2026-05-06 16:19 | 45.62345 | 8.71666 | 730 ft | 4 kts | 350° |
| 2026-05-06 16:20 | 45.62376 | 8.71658 | 731 ft | 5 kts | 349° |
| 2026-05-06 16:20 | 45.62390 | 8.71654 | 731 ft | 0 kts | 349° |